Royal City, WA (99357)

6:36 PM PST on February 13, 2016 (GMT -0800)
Royal City CVWest | | Change Station
CLOSE
Current Station
Personal Weather Station
Location: Royal City, WA
Elevation: 1102 ft
Nearby Weather Stations

Elev 1102 ft 46.93 °N, 119.79 °W | Updated 3 seconds ago

Overcast
Overcast
42.3 °F
Feels Like 42 °F
N
0.9
Wind Variable Wind from East
Gusts 2.5 mph

Today
High -- | Low -- °F
--% Chance of Precip.
Yesterday
High -- | Low -- °F
Precip. -- in
Pressure 30.13 in
Visibility 10.0 miles
Clouds Scattered Clouds 2700 ft
Overcast 4000 ft
Windchill 42 °F
Dew Point 36 °F
Humidity 80%
Rainfall 0.05 in
Snow Depth Not available.
7:06 AM 5:19 PM
Waxing Crescent, 36% visible
SPECI KMWH 140232Z 16007KT 10SM -RA SCT027 OVC040 06/04 A3013 RMK AO2 RAE0157B28 P0000 T00560039
Pressure 30.13 in
Visibility 10.0 miles
Clouds Scattered Clouds 2700 ft
Overcast 4000 ft
Windchill 42 °F
Dew Point 36 °F
Humidity 80%
Rainfall 0.05 in
Snow Depth Not available.
7:06 AM 5:19 PM
Waxing Crescent, 36% visible
SPECI KMWH 140232Z 16007KT 10SM -RA SCT027 OVC040 06/04 A3013 RMK AO2 RAE0157B28 P0000 T00560039

10-Day Weather Forecast

Almanac

Astronomy

Feb. 13, 2016 Rise Set
Actual Time
Civil Twilight
Nautical Twilight
Astronomical Twilight
Moon
Length of Visible Light
Length of Day
Tomorrow will be .
, % of the Moon is Illuminated

Today's Extremes

State Highs State Lows

Community

WunderPhotos

Upload Photos

1,892,730 photos uploaded!

WunderBlog® & News

Nearby

Air Quality

  Air Quality AQ Index Pollutant
Not available.

Snow Depth

Station Depth Elevation

Earthquake Activity

City Distance Mag. Time & Date
Minimum magnitude displayed is 2.5.

Coastal Water Temperatures

Place Temperature

Stations

Nearby Weather Stations

Station Location Temp. Windchill Dew Point Humidity Wind Precip. Elev Updated Type
                   

Watches & Warnings

There are currently no watches in effect.